Time;durP1;ratioP1;P1;durP2;ratioP2;P2;SDS_P1;SDS_P2;PMS_P1;PMS_P2;Temp;Humidity;BMP_temperature;BMP_pressure;BME280_temperature;BME280_humidity;BME280_pressure;Samples;Min_cycle;Max_cycle;Signal;HPM_P1;HPM_P2
2022/09/01 00:02:10;;;;;;;3.20;1.15;;;;;;;12.34;61.60;99119.44;5026586;28;20025;-53
2022/09/01 00:04:37;;;;;;;2.13;1.30;;;;;;;12.40;61.30;99129.53;5029542;28;20049;-56
2022/09/01 00:07:07;;;;;;;5.28;3.20;;;;;;;12.41;61.06;99112.44;5029095;28;20041;-53
2022/09/01 00:09:34;;;;;;;5.35;3.05;;;;;;;12.43;61.18;99121.19;5020297;28;20080;-55
2022/09/01 00:12:00;;;;;;;3.20;1.42;;;;;;;12.46;61.00;99117.34;5022343;28;20052;-55
2022/09/01 00:14:29;;;;;;;9.02;4.30;;;;;;;12.47;61.00;99127.94;5010863;28;20117;-58
2022/09/01 00:16:55;;;;;;;1.92;0.80;;;;;;;12.43;61.25;99128.41;5012882;28;20036;-57
2022/09/01 00:19:22;;;;;;;1.67;0.85;;;;;;;12.38;61.17;99118.13;5027709;28;20033;-58
2022/09/01 00:21:48;;;;;;;3.22;1.23;;;;;;;12.39;61.04;99127.84;5029457;28;20037;-57
2022/09/01 00:24:15;;;;;;;8.35;5.63;;;;;;;12.38;61.02;99125.31;5022831;28;20355;-59
2022/09/01 00:26:41;;;;;;;3.05;1.85;;;;;;;12.20;61.54;99102.00;5018523;28;20029;-57
2022/09/01 00:29:07;;;;;;;7.43;3.53;;;;;;;12.40;61.09;99132.22;5021804;28;20033;-57
2022/09/01 00:31:33;;;;;;;1.73;0.98;;;;;;;12.47;60.87;99135.97;5010584;28;20367;-57
2022/09/01 00:33:59;;;;;;;4.97;3.17;;;;;;;12.45;60.77;99127.25;5011680;28;20167;-57
2022/09/01 00:36:25;;;;;;;2.47;1.70;;;;;;;12.47;60.48;99130.63;5021040;28;20029;-54
2022/09/01 00:38:51;;;;;;;2.78;1.60;;;;;;;12.46;60.79;99130.78;5029695;28;20328;-52
2022/09/01 00:41:21;;;;;;;16.38;8.38;;;;;;;12.48;61.09;99132.28;5029989;28;20115;-56
2022/09/01 00:43:50;;;;;;;6.65;3.65;;;;;;;12.52;60.74;99132.00;5014346;28;20030;-52
2022/09/01 00:46:24;;;;;;;2.88;2.03;;;;;;;12.58;60.80;99128.72;5023756;28;20429;-53
2022/09/01 00:48:54;;;;;;;23.33;13.27;;;;;;;12.62;60.85;99127.41;5030895;28;20064;-56
2022/09/01 00:51:20;;;;;;;3.40;2.17;;;;;;;12.53;60.45;99121.09;5017607;28;20092;-53
2022/09/01 00:53:46;;;;;;;3.47;2.13;;;;;;;12.59;60.37;99133.91;5014456;28;20037;-57
2022/09/01 00:56:13;;;;;;;2.13;0.70;;;;;;;12.59;59.96;99143.81;5029817;28;20548;-57
2022/09/01 00:58:39;;;;;;;3.42;1.17;;;;;;;12.55;60.11;99137.91;5026010;28;20042;-57
2022/09/01 01:01:07;;;;;;;1.70;1.30;;;;;;;12.53;59.88;99128.31;5029613;28;20049;-53
2022/09/01 01:03:33;;;;;;;5.40;2.72;;;;;;;12.54;59.84;99146.09;5032644;28;20495;-61
2022/09/01 01:06:03;;;;;;;3.25;2.17;;;;;;;12.55;60.07;99142.44;5033268;28;20045;-57
2022/09/01 01:08:34;;;;;;;1.00;0.70;;;;;;;12.34;59.81;99103.31;5033728;28;20057;-55
2022/09/01 01:11:06;;;;;;;3.45;2.38;;;;;;;12.42;59.82;99143.66;5013931;28;20038;-56
2022/09/01 01:13:40;;;;;;;2.03;1.33;;;;;;;12.31;60.13;99143.91;5019685;28;20033;-54
2022/09/01 01:16:07;;;;;;;3.08;0.82;;;;;;;12.25;60.05;99133.75;5031111;28;20033;-54
2022/09/01 01:18:33;;;;;;;7.78;4.07;;;;;;;12.19;60.48;99136.03;5031173;28;20057;-55
2022/09/01 01:24:05;;;;;;;1.95;0.80;;;;;;;12.22;60.21;99137.59;5032121;28;20045;-53
2022/09/01 01:26:30;;;;;;;6.45;3.17;;;;;;;12.09;60.59;99137.09;5013337;28;20498;-53
2022/09/01 01:28:56;;;;;;;1.17;0.85;;;;;;;12.04;60.71;99135.72;5013388;28;20111;-57
2022/09/01 01:31:22;;;;;;;0.70;0.50;;;;;;;11.91;61.05;99111.03;5033430;28;20390;-55
2022/09/01 01:33:55;;;;;;;5.68;3.20;;;;;;;12.08;60.88;99128.22;5032741;28;20033;-54
2022/09/01 01:36:32;;;;;;;4.47;1.88;;;;;;;12.06;60.79;99123.00;5032867;28;20029;-52
2022/09/01 01:39:02;;;;;;;7.50;3.45;;;;;;;12.01;60.95;99122.59;5028975;28;20041;-58
2022/09/01 01:41:30;;;;;;;4.65;2.65;;;;;;;11.97;61.29;99131.94;5017845;28;20033;-55
2022/09/01 01:43:58;;;;;;;2.55;1.50;;;;;;;11.92;60.82;99121.63;5013573;28;20044;-53
2022/09/01 01:46:25;;;;;;;2.78;1.98;;;;;;;11.77;61.01;99101.66;5028107;28;20030;-54
2022/09/01 01:48:52;;;;;;;9.52;4.82;;;;;;;11.94;61.12;99126.00;5032640;28;20029;-55
2022/09/01 01:51:20;;;;;;;10.10;5.03;;;;;;;11.95;61.09;99130.38;5030620;28;20083;-53
2022/09/01 01:53:51;;;;;;;4.40;2.47;;;;;;;11.94;61.13;99132.22;5032544;28;20033;-52
2022/09/01 01:56:18;;;;;;;1.33;0.85;;;;;;;11.91;60.66;99117.25;5031172;28;20038;-57
2022/09/01 01:58:43;;;;;;;10.05;5.65;;;;;;;11.88;61.06;99130.13;5011334;28;20034;-56
2022/09/01 02:01:11;;;;;;;1.80;0.93;;;;;;;11.86;61.17;99124.91;5029898;28;20033;-54
2022/09/01 02:03:37;;;;;;;1.10;0.60;;;;;;;11.71;61.20;99113.00;5032081;28;20490;-64
2022/09/01 02:06:07;;;;;;;3.00;1.70;;;;;;;11.76;61.20;99129.47;5032758;28;20053;-57
2022/09/01 02:08:34;;;;;;;4.00;2.05;;;;;;;11.71;61.47;99134.44;5019569;28;20038;-54
2022/09/01 02:11:01;;;;;;;4.65;3.15;;;;;;;11.61;61.55;99138.03;5012727;28;20497;-57
2022/09/01 02:13:29;;;;;;;3.08;2.00;;;;;;;11.53;61.95;99135.22;5013927;28;20136;-55
2022/09/01 02:16:01;;;;;;;6.63;4.00;;;;;;;11.51;62.34;99139.06;5029826;28;20037;-58
2022/09/01 02:18:34;;;;;;;2.53;1.45;;;;;;;11.56;62.26;99142.97;5021999;28;20026;-57
2022/09/01 02:21:02;;;;;;;8.75;4.90;;;;;;;11.47;62.38;99143.84;5012602;28;20044;-58
2022/09/01 02:23:28;;;;;;;7.22;3.30;;;;;;;11.41;62.21;99136.41;5011994;28;20808;-55
2022/09/01 02:25:59;;;;;;;6.15;3.20;;;;;;;11.32;62.14;99120.19;5012817;28;20091;-56
2022/09/01 02:28:27;;;;;;;9.32;5.18;;;;;;;11.33;62.48;99137.13;5021509;28;20030;-57
2022/09/01 02:30:53;;;;;;;3.28;2.00;;;;;;;11.30;62.67;99140.09;5028166;28;20036;-57
2022/09/01 02:33:20;;;;;;;6.63;2.22;;;;;;;11.29;62.51;99130.38;5012695;28;20087;-57
2022/09/01 02:35:50;;;;;;;3.78;2.13;;;;;;;11.27;62.53;99135.88;5023877;28;20147;-54
2022/09/01 02:38:16;;;;;;;3.03;1.85;;;;;;;11.19;62.75;99131.22;5026936;28;20403;-58
2022/09/01 02:40:45;;;;;;;12.93;7.03;;;;;;;11.27;62.72;99138.56;5031111;28;20461;-54
2022/09/01 02:43:15;;;;;;;6.00;2.97;;;;;;;11.30;62.75;99143.63;5014171;28;20701;-57
2022/09/01 02:45:43;;;;;;;7.05;4.03;;;;;;;11.34;62.32;99134.31;5031748;28;20049;-55
2022/09/01 02:48:09;;;;;;;8.43;5.05;;;;;;;11.38;62.30;99131.34;5017430;28;20029;-57
2022/09/01 02:50:36;;;;;;;4.82;1.80;;;;;;;11.40;62.14;99138.22;5013599;28;20033;-55
2022/09/01 02:53:05;;;;;;;1.40;0.60;;;;;;;11.42;61.79;99140.78;5011933;28;20038;-57
2022/09/01 02:55:31;;;;;;;1.80;1.10;;;;;;;11.40;61.96;99137.41;5011602;28;20117;-57
2022/09/01 02:57:57;;;;;;;4.90;1.80;;;;;;;11.21;61.92;99112.34;5020013;28;20029;-57
2022/09/01 03:00:27;;;;;;;3.42;1.10;;;;;;;11.29;61.71;99135.75;5030531;28;20033;-54
2022/09/01 03:02:56;;;;;;;6.20;2.55;;;;;;;11.23;62.52;99131.81;5026466;28;20037;-54
2022/09/01 03:05:25;;;;;;;2.47;0.80;;;;;;;11.14;62.19;99122.78;5030881;28;20060;-57
2022/09/01 03:07:58;;;;;;;3.65;2.22;;;;;;;11.17;62.63;99132.38;5027184;28;20044;-56
2022/09/01 03:10:34;;;;;;;9.27;4.63;;;;;;;11.25;62.57;99129.00;5011268;28;20046;-56
2022/09/01 03:13:03;;;;;;;2.97;1.08;;;;;;;11.30;61.71;99127.53;5010199;28;20054;-56
2022/09/01 03:15:28;;;;;;;11.00;4.38;;;;;;;11.51;61.58;99137.19;5011928;28;20470;-57
2022/09/01 03:17:57;;;;;;;2.22;1.80;;;;;;;11.77;60.64;99136.53;5023815;28;20075;-56
2022/09/01 03:20:22;;;;;;;5.75;2.70;;;;;;;12.06;59.79;99133.72;5013550;28;20043;-60
2022/09/01 03:22:50;;;;;;;1.00;0.80;;;;;;;12.28;58.69;99120.00;5026782;28;20030;-56
2022/09/01 03:25:17;;;;;;;7.18;3.65;;;;;;;12.30;58.75;99112.69;5019616;28;20029;-54
2022/09/01 03:27:43;;;;;;;7.97;3.67;;;;;;;12.45;58.41;99129.09;5027115;28;20041;-57
2022/09/01 03:30:10;;;;;;;9.82;5.00;;;;;;;12.46;58.58;99128.09;5011578;28;20045;-57
2022/09/01 03:32:36;;;;;;;3.65;1.60;;;;;;;12.49;58.18;99127.78;5010870;28;20026;-55
2022/09/01 03:35:02;;;;;;;2.85;1.27;;;;;;;12.54;58.13;99135.38;5011603;28;20858;-54
2022/09/01 03:37:28;;;;;;;3.72;2.35;;;;;;;12.59;57.96;99125.03;5011612;28;20033;-60
2022/09/01 03:39:54;;;;;;;4.82;2.70;;;;;;;12.62;57.82;99122.03;5027720;28;20040;-54
2022/09/01 03:42:21;;;;;;;7.28;3.70;;;;;;;12.68;57.61;99126.78;5026764;28;20040;-55
2022/09/01 03:44:48;;;;;;;6.75;2.58;;;;;;;12.65;57.28;99116.34;5011440;28;20106;-55
2022/09/01 03:47:15;;;;;;;8.57;5.13;;;;;;;12.74;57.00;99134.19;5013341;28;20044;-57
2022/09/01 03:49:42;;;;;;;1.25;0.80;;;;;;;12.74;56.69;99134.19;5028770;28;20424;-55
2022/09/01 03:52:11;;;;;;;6.88;3.20;;;;;;;12.80;56.83;99140.81;5027606;28;20073;-53
2022/09/01 03:54:37;;;;;;;1.95;1.38;;;;;;;12.75;56.57;99129.69;5009918;28;20569;-53
2022/09/01 03:57:05;;;;;;;5.55;2.05;;;;;;;12.79;56.23;99133.75;5010133;28;20148;-53
2022/09/01 03:59:31;;;;;;;3.58;2.03;;;;;;;12.81;56.10;99130.91;5022149;28;20153;-60
2022/09/01 04:01:59;;;;;;;7.05;2.67;;;;;;;12.85;55.82;99137.66;5029903;28;20593;-53
2022/09/01 04:04:25;;;;;;;2.45;1.60;;;;;;;12.90;55.20;99136.19;5029431;28;20060;-54
2022/09/01 04:06:51;;;;;;;3.83;0.93;;;;;;;12.95;55.02;99137.56;5030084;28;20056;-54
2022/09/01 04:09:16;;;;;;;3.22;1.42;;;;;;;12.95;54.71;99119.59;5014397;28;20029;-55
2022/09/01 04:11:45;;;;;;;1.50;0.80;;;;;;;12.93;54.19;99097.41;5012023;28;20108;-54
2022/09/01 04:14:10;;;;;;;1.73;1.25;;;;;;;13.34;53.13;99121.00;5026174;28;20029;-60
2022/09/01 04:19:26;;;;;;;5.75;3.38;;;;;;;14.05;51.45;99131.63;5021651;28;20123;-56
2022/09/01 04:21:59;;;;;;;5.95;2.20;;;;;;;14.23;51.05;99125.25;5029166;28;20033;-57
2022/09/01 04:24:27;;;;;;;2.85;0.90;;;;;;;14.09;50.43;99114.13;5030065;28;20029;-57
2022/09/01 04:26:55;;;;;;;1.75;0.60;;;;;;;14.00;50.06;99112.44;5030022;28;20044;-55
2022/09/01 04:29:27;;;;;;;5.35;3.03;;;;;;;13.75;50.51;99131.19;5014368;28;20036;-57
2022/09/01 04:31:54;;;;;;;4.88;1.98;;;;;;;13.57;50.72;99125.88;5011254;28;20038;-56
2022/09/01 04:34:21;;;;;;;3.90;1.08;;;;;;;13.44;51.41;99131.69;5019392;28;20043;-55
2022/09/01 04:36:47;;;;;;;5.15;2.17;;;;;;;13.18;51.46;99122.63;5028363;28;20539;-54
2022/09/01 04:39:13;;;;;;;1.70;1.20;;;;;;;13.26;51.81;99131.72;5013610;28;20041;-54
2022/09/01 04:41:49;;;;;;;2.47;1.75;;;;;;;13.25;51.85;99128.19;5028692;28;20377;-55
2022/09/01 04:44:17;;;;;;;1.50;0.50;;;;;;;13.25;51.86;99130.88;5030798;28;20033;-54
2022/09/01 04:46:49;;;;;;;2.47;1.10;;;;;;;13.27;51.71;99131.59;5017931;28;20438;-56
2022/09/01 04:49:21;;;;;;;0.95;0.52;;;;;;;13.33;51.36;99128.25;5010546;28;20069;-56
2022/09/01 04:51:49;;;;;;;8.50;2.03;;;;;;;13.18;51.30;99111.00;5014503;28;20121;-58
2022/09/01 04:54:15;;;;;;;2.53;0.70;;;;;;;13.15;50.73;99104.13;5030825;28;20042;-53
2022/09/01 04:56:43;;;;;;;3.75;2.05;;;;;;;13.31;51.04;99132.94;5030125;28;20032;-54
2022/09/01 04:59:10;;;;;;;3.17;1.00;;;;;;;13.28;50.19;99127.91;5013735;28;20045;-53
2022/09/01 05:01:44;;;;;;;0.98;0.63;;;;;;;13.40;49.82;99130.28;5010152;28;20029;-56
2022/09/01 05:04:16;;;;;;;6.32;3.40;;;;;;;13.41;50.03;99124.78;5010578;28;20463;-54
2022/09/01 05:06:45;;;;;;;1.17;0.80;;;;;;;13.50;49.49;99136.41;5011427;28;20068;-56
2022/09/01 05:09:12;;;;;;;3.33;1.52;;;;;;;13.56;48.83;99140.31;5010027;28;20097;-54
2022/09/01 05:11:40;;;;;;;4.00;0.55;;;;;;;13.63;48.31;99147.59;5013664;28;20033;-54
2022/09/01 05:14:05;;;;;;;4.03;1.08;;;;;;;13.66;48.11;99142.91;5030596;28;20030;-54
2022/09/01 05:16:34;;;;;;;2.22;0.57;;;;;;;13.72;47.65;99142.25;5029565;28;20087;-51
2022/09/01 05:19:00;;;;;;;1.48;0.60;;;;;;;13.74;47.62;99133.03;5015089;28;20161;-55
2022/09/01 05:21:28;;;;;;;3.58;1.20;;;;;;;13.72;47.62;99137.72;5011945;28;20124;-56
2022/09/01 05:23:56;;;;;;;3.00;1.02;;;;;;;13.85;47.47;99134.59;5013947;28;20490;-55
2022/09/01 05:26:25;;;;;;;3.08;0.68;;;;;;;13.58;47.13;99074.63;5022357;28;20033;-51
2022/09/01 05:28:59;;;;;;;3.17;1.40;;;;;;;14.00;47.24;99123.22;5017607;28;20422;-57
2022/09/01 05:31:28;;;;;;;3.43;1.00;;;;;;;14.24;46.26;99137.75;5013879;28;20038;-50
2022/09/01 05:33:56;;;;;;;2.03;0.75;;;;;;;14.38;46.12;99136.25;5018995;28;20489;-53
2022/09/01 05:36:23;;;;;;;3.10;1.13;;;;;;;14.50;45.45;99143.84;5032583;28;20029;-54
2022/09/01 05:38:51;;;;;;;1.67;0.50;;;;;;;14.68;45.14;99142.84;5032921;28;20033;-55
2022/09/01 05:41:19;;;;;;;2.97;0.90;;;;;;;14.82;44.84;99141.34;5016384;28;20030;-55
2022/09/01 05:43:49;;;;;;;1.50;0.70;;;;;;;14.90;44.57;99138.69;5013950;28;20393;-51
2022/09/01 05:46:19;;;;;;;2.00;0.60;;;;;;;14.80;44.76;99142.56;5014452;28;20041;-55
2022/09/01 05:48:48;;;;;;;5.47;1.70;;;;;;;14.73;44.95;99142.38;5025566;28;20080;-53
2022/09/01 05:51:16;;;;;;;2.53;0.90;;;;;;;14.77;44.75;99141.03;5033014;28;20108;-54
2022/09/01 05:53:42;;;;;;;0.98;0.50;;;;;;;14.78;44.46;99157.03;5032860;28;20167;-52
2022/09/01 05:56:11;;;;;;;4.38;1.85;;;;;;;14.74;44.24;99144.06;5016455;28;20069;-53
2022/09/01 05:58:39;;;;;;;1.40;0.63;;;;;;;14.69;44.58;99144.50;5012983;28;20474;-53
2022/09/01 06:01:05;;;;;;;5.15;0.47;;;;;;;14.67;44.79;99145.72;5015578;28;20029;-54
2022/09/01 06:03:32;;;;;;;4.18;0.98;;;;;;;14.62;44.25;99135.44;5032438;28;20021;-53
2022/09/01 06:06:06;;;;;;;3.28;0.60;;;;;;;14.67;44.31;99143.84;5032103;28;20406;-54
2022/09/01 06:08:32;;;;;;;4.30;1.47;;;;;;;14.75;44.29;99132.25;5032792;28;20040;-52
2022/09/01 06:10:57;;;;;;;3.13;0.70;;;;;;;14.79;43.48;99106.66;5027638;28;20038;-53
2022/09/01 06:13:23;;;;;;;5.88;1.30;;;;;;;15.04;42.87;99107.50;5032363;28;20118;-56
2022/09/01 06:15:50;;;;;;;0.93;0.60;;;;;;;15.48;41.65;99126.97;5032688;28;20332;-55
2022/09/01 06:18:16;;;;;;;7.18;0.95;;;;;;;15.76;40.98;99127.34;5015431;28;20037;-53
2022/09/01 06:20:45;;;;;;;1.10;0.80;;;;;;;16.16;40.12;99135.50;5031001;28;20048;-55
2022/09/01 06:23:13;;;;;;;2.53;0.60;;;;;;;16.66;38.88;99132.47;5032580;28;21000;-53
2022/09/01 06:25:41;;;;;;;4.95;0.55;;;;;;;17.00;38.16;99119.50;5025709;28;20524;-53
2022/09/01 06:28:07;;;;;;;7.85;0.80;;;;;;;16.88;37.93;99130.75;5023977;28;20124;-53
2022/09/01 06:30:35;;;;;;;4.45;0.60;;;;;;;16.59;38.76;99142.28;5016238;28;20118;-56
2022/09/01 06:33:04;;;;;;;4.18;1.08;;;;;;;16.19;39.93;99139.69;5031980;28;20029;-53
2022/09/01 06:35:31;;;;;;;2.25;0.73;;;;;;;15.79;39.98;99135.13;5021150;28;20355;-53
2022/09/01 06:37:57;;;;;;;3.35;0.57;;;;;;;15.44;40.90;99129.16;5011153;28;20390;-58
2022/09/01 06:40:24;;;;;;;3.70;0.50;;;;;;;15.25;41.54;99140.31;5024270;28;20036;-59
2022/09/01 06:42:51;;;;;;;3.42;0.60;;;;;;;15.17;41.92;99127.69;5018402;28;20135;-60
2022/09/01 06:45:23;;;;;;;2.35;0.60;;;;;;;15.17;42.08;99133.94;5030477;28;20504;-57
2022/09/01 06:47:51;;;;;;;4.20;0.80;;;;;;;15.14;42.28;99144.22;5032256;28;20095;-57
2022/09/01 06:50:20;;;;;;;3.47;0.60;;;;;;;15.13;42.22;99142.53;5028289;28;20060;-55
2022/09/01 06:52:49;;;;;;;7.13;0.50;;;;;;;15.00;42.41;99138.50;5031091;28;20108;-56
2022/09/01 06:55:15;;;;;;;3.28;0.85;;;;;;;14.88;42.99;99142.53;5020125;28;20036;-62
2022/09/01 06:57:44;;;;;;;6.28;0.98;;;;;;;14.88;43.04;99142.53;5011726;28;20037;-58
2022/09/01 07:00:19;;;;;;;1.67;0.68;;;;;;;14.88;43.22;99151.47;5016603;28;20033;-58
2022/09/01 07:02:44;;;;;;;1.80;0.60;;;;;;;14.83;43.28;99158.38;5029178;28;20037;-57
2022/09/01 07:05:16;;;;;;;5.00;0.90;;;;;;;14.68;44.34;99156.31;5021282;28;20060;-58
2022/09/01 07:07:48;;;;;;;1.20;0.50;;;;;;;14.49;45.28;99155.63;5020139;28;20042;-58
2022/09/01 07:10:13;;;;;;;2.88;0.50;;;;;;;14.37;45.61;99156.94;5023132;28;20076;-58
2022/09/01 07:12:44;;;;;;;8.43;0.70;;;;;;;14.31;45.84;99154.91;5014669;28;20057;-58
2022/09/01 07:15:15;;;;;;;2.35;0.65;;;;;;;14.42;45.50;99165.34;5011292;28;20124;-57
2022/09/01 07:17:50;;;;;;;3.53;0.50;;;;;;;14.59;44.89;99155.47;5024579;28;20105;-56
2022/09/01 07:20:20;;;;;;;0.85;0.43;;;;;;;15.01;43.74;99159.06;5023306;28;20112;-55
2022/09/01 07:22:46;;;;;;;1.70;0.60;;;;;;;15.42;42.76;99163.56;5029096;28;20164;-59
2022/09/01 07:25:12;;;;;;;3.95;0.50;;;;;;;15.56;42.33;99169.28;5028132;28;20075;-59
2022/09/01 07:27:40;;;;;;;2.25;0.55;;;;;;;15.46;42.50;99164.06;5025061;28;20163;-60
2022/09/01 07:30:10;;;;;;;2.17;0.50;;;;;;;15.26;42.83;99166.25;5019262;28;20029;-57
2022/09/01 07:32:38;;;;;;;5.07;0.38;;;;;;;15.09;43.68;99168.13;5027145;28;20057;-54
2022/09/01 07:35:07;;;;;;;1.65;0.77;;;;;;;14.92;44.04;99163.59;5028071;28;20042;-59
2022/09/01 07:37:36;;;;;;;2.55;0.60;;;;;;;14.77;44.33;99157.19;5011427;28;20038;-56
2022/09/01 07:40:18;;;;;;;3.60;0.60;;;;;;;14.77;44.77;99171.53;5014182;28;20025;-57
2022/09/01 07:42:48;;;;;;;2.15;0.47;;;;;;;14.65;45.21;99164.72;5019112;28;20041;-56
2022/09/01 07:45:15;;;;;;;3.40;0.57;;;;;;;14.52;45.31;99150.91;5030318;28;20037;-53
2022/09/01 07:47:43;;;;;;;5.35;0.60;;;;;;;14.80;45.09;99159.53;5015726;28;20042;-57
2022/09/01 07:50:11;;;;;;;9.48;1.10;;;;;;;15.13;44.38;99175.72;5018738;28;20462;-59
2022/09/01 07:52:41;;;;;;;5.90;0.80;;;;;;;15.42;43.35;99162.69;5010963;28;20037;-57
2022/09/01 07:55:15;;;;;;;4.95;0.70;;;;;;;15.82;42.33;99162.78;5016734;28;20033;-57
2022/09/01 07:57:44;;;;;;;6.82;0.50;;;;;;;16.30;40.45;99174.41;5015603;28;20042;-57
2022/09/01 08:00:12;;;;;;;3.42;0.75;;;;;;;16.31;40.42;99175.22;5028008;28;20144;-58
2022/09/01 08:02:39;;;;;;;4.13;0.70;;;;;;;16.39;40.65;99177.03;5013222;28;20719;-57
2022/09/01 08:05:12;;;;;;;8.95;0.50;;;;;;;16.36;40.55;99170.97;5029538;28;20050;-54
2022/09/01 08:07:38;;;;;;;3.45;0.50;;;;;;;16.09;41.30;99164.19;5012971;28;20038;-58
2022/09/01 08:10:06;;;;;;;6.32;0.55;;;;;;;15.98;41.22;99167.28;5016189;28;20090;-56
2022/09/01 08:12:32;;;;;;;5.75;0.60;;;;;;;16.01;41.23;99166.94;5029797;28;20030;-55
2022/09/01 08:14:57;;;;;;;1.42;0.50;;;;;;;16.12;40.99;99163.84;5017210;28;20164;-58
2022/09/01 08:17:23;;;;;;;4.30;0.88;;;;;;;16.23;40.46;99167.19;5011616;28;20117;-57
2022/09/01 08:19:49;;;;;;;3.33;0.60;;;;;;;16.22;40.71;99160.91;5010970;28;20038;-57
2022/09/01 08:22:14;;;;;;;4.78;0.85;;;;;;;16.14;40.40;99160.97;5010207;28;20111;-58
2022/09/01 08:24:41;;;;;;;6.70;0.80;;;;;;;16.01;40.79;99177.75;5011329;28;20393;-54
2022/09/01 08:27:07;;;;;;;13.88;1.10;;;;;;;15.77;40.98;99174.09;5030612;28;20124;-54
2022/09/01 08:29:33;;;;;;;5.15;0.90;;;;;;;15.53;41.59;99170.44;5029588;28;20034;-56
2022/09/01 08:31:59;;;;;;;1.50;0.70;;;;;;;15.26;42.13;99169.81;5030160;28;20029;-54
2022/09/01 08:34:25;;;;;;;1.52;0.70;;;;;;;15.06;42.50;99167.47;5026684;28;20071;-60
2022/09/01 08:36:51;;;;;;;4.00;0.68;;;;;;;14.86;42.75;99172.38;5028773;28;20041;-55
2022/09/01 08:39:16;;;;;;;3.33;0.50;;;;;;;14.78;42.61;99173.19;5030173;28;20172;-55
2022/09/01 08:42:02;;;;;;;0.80;0.30;;;;;;;14.82;43.08;99186.34;5018021;28;20036;-54
2022/09/01 08:44:33;;;;;;;4.97;0.68;;;;;;;14.79;43.00;99184.81;5014278;28;20481;-60
2022/09/01 08:47:08;;;;;;;5.65;1.63;;;;;;;14.91;42.87;99175.41;5011856;28;20069;-55
2022/09/01 08:49:37;;;;;;;3.95;1.40;;;;;;;15.13;41.82;99191.06;5009777;28;20042;-55
2022/09/01 08:52:20;;;;;;;2.10;0.47;;;;;;;15.33;40.81;99176.22;5010025;28;20489;-57
2022/09/01 08:54:46;;;;;;;3.92;0.50;;;;;;;15.65;39.99;99185.22;5023199;28;20037;-59
2022/09/01 08:57:26;;;;;;;1.63;0.40;;;;;;;16.17;39.28;99183.06;5022306;28;20084;-58
2022/09/01 08:59:52;;;;;;;2.67;0.40;;;;;;;16.47;38.34;99183.25;5015152;28;20034;-55
2022/09/01 09:02:33;;;;;;;3.53;0.40;;;;;;;16.78;38.22;99185.06;5022590;28;20542;-59
2022/09/01 09:05:06;;;;;;;2.05;1.17;;;;;;;16.73;37.98;99187.47;5013911;28;20498;-58
2022/09/01 09:08:16;;;;;;;2.45;0.85;;;;;;;16.68;38.25;99187.19;5013155;28;20888;-60
2022/09/01 09:11:05;;;;;;;1.27;0.57;;;;;;;16.50;38.43;99193.69;5022780;28;20076;-57
2022/09/01 09:13:49;;;;;;;6.88;0.80;;;;;;;16.53;38.18;99187.09;5023430;28;20044;-57
2022/09/01 09:16:21;;;;;;;6.85;0.68;;;;;;;16.53;37.92;99194.34;5013430;28;20042;-59
2022/09/01 09:18:56;;;;;;;6.18;0.77;;;;;;;16.46;38.23;99183.41;5024039;28;20047;-55
2022/09/01 09:21:49;;;;;;;2.47;0.50;;;;;;;16.63;37.97;99203.91;5026200;28;20156;-55
2022/09/01 09:24:45;;;;;;;4.88;0.70;;;;;;;16.40;37.82;99193.09;5033063;28;20045;-58
2022/09/01 09:27:23;;;;;;;3.28;0.60;;;;;;;16.52;37.80;99198.06;5028852;28;20512;-55
2022/09/01 09:29:56;;;;;;;2.65;0.43;;;;;;;16.68;37.55;99203.38;5029803;28;20072;-57
2022/09/01 09:32:41;;;;;;;1.35;0.80;;;;;;;16.73;36.65;99200.97;5018694;28;20149;-55
2022/09/01 09:35:28;;;;;;;2.60;0.90;;;;;;;16.97;36.58;99209.94;5031179;28;20032;-55
2022/09/01 09:37:54;;;;;;;3.38;0.40;;;;;;;16.81;35.72;99204.66;5033172;28;20055;-58
2022/09/01 09:40:23;;;;;;;5.13;0.60;;;;;;;16.82;35.65;99206.31;5032741;28;20057;-55
2022/09/01 09:42:55;;;;;;;3.50;0.40;;;;;;;16.79;35.98;99208.38;5031390;28;20399;-59
2022/09/01 09:45:28;;;;;;;2.53;0.50;;;;;;;16.83;35.67;99214.25;5032498;28;20386;-56
2022/09/01 09:47:56;;;;;;;3.53;0.43;;;;;;;16.97;35.76;99220.75;5032719;28;20143;-57
2022/09/01 09:50:21;;;;;;;2.33;0.40;;;;;;;16.96;35.45;99208.25;5029607;28;20063;-56
2022/09/01 09:52:49;;;;;;;2.38;0.68;;;;;;;16.92;35.71;99212.34;5032065;28;20065;-55
2022/09/01 09:55:27;;;;;;;5.75;0.70;;;;;;;16.96;36.17;99213.66;5031452;28;20025;-52
2022/09/01 09:57:59;;;;;;;5.38;0.60;;;;;;;16.74;36.37;99224.28;5023998;28;20034;-55
2022/09/01 10:00:33;;;;;;;2.33;0.55;;;;;;;16.59;36.82;99220.66;5012871;28;20100;-56
2022/09/01 10:03:08;;;;;;;3.92;0.52;;;;;;;16.50;37.41;99228.81;5031179;28;20152;-58
2022/09/01 10:05:40;;;;;;;1.15;0.40;;;;;;;16.48;37.48;99236.28;5012769;28;20450;-58
2022/09/01 10:08:09;;;;;;;0.80;0.50;;;;;;;16.39;37.56;99237.31;5015234;28;20101;-52
2022/09/01 10:10:37;;;;;;;2.20;0.50;;;;;;;16.32;37.43;99225.53;5021071;28;20037;-55
2022/09/01 10:13:06;;;;;;;5.53;4.80;;;;;;;16.21;37.19;99229.47;5032070;28;20051;-59
2022/09/01 10:15:32;;;;;;;3.75;0.77;;;;;;;16.20;37.03;99223.22;5015425;28;20034;-52
2022/09/01 10:18:13;;;;;;;1.13;0.40;;;;;;;16.45;37.30;99220.41;5032840;28;20079;-54
2022/09/01 10:20:54;;;;;;;2.30;0.70;;;;;;;16.62;36.06;99229.25;5031879;28;20072;-55
2022/09/01 10:23:19;;;;;;;2.35;0.50;;;;;;;16.64;35.78;99231.81;5015157;28;20022;-54
2022/09/01 10:25:49;;;;;;;0.80;0.57;;;;;;;16.63;36.08;99230.94;5012054;28;20088;-58
2022/09/01 10:28:23;;;;;;;3.38;0.77;;;;;;;16.67;36.15;99236.00;5011991;28;20482;-58
2022/09/01 10:30:51;;;;;;;2.47;0.50;;;;;;;16.72;36.06;99231.75;5025664;28;20034;-56
2022/09/01 10:33:19;;;;;;;3.88;0.75;;;;;;;16.72;35.77;99237.16;5031637;28;20026;-56
2022/09/01 10:35:48;;;;;;;5.53;0.70;;;;;;;16.63;35.95;99240.91;5015309;28;20045;-53
2022/09/01 10:38:28;;;;;;;3.10;0.80;;;;;;;16.48;36.30;99241.66;5012378;28;20044;-54
2022/09/01 10:41:07;;;;;;;4.90;1.00;;;;;;;16.28;36.64;99238.56;5024189;28;20485;-56
2022/09/01 10:43:35;;;;;;;0.85;0.57;;;;;;;16.19;37.00;99247.69;5031475;28;20108;-56
2022/09/01 10:46:20;;;;;;;1.38;0.73;;;;;;;16.12;37.50;99250.25;5030848;28;20118;-58
2022/09/01 10:48:56;;;;;;;3.53;1.00;;;;;;;16.23;37.42;99240.94;5032153;28;20123;-57
2022/09/01 10:51:22;;;;;;;1.95;0.90;;;;;;;16.36;37.09;99243.06;5031435;28;20263;-57
2022/09/01 10:53:48;;;;;;;2.13;1.05;;;;;;;16.66;36.45;99243.28;5030154;28;20046;-59
2022/09/01 10:56:16;;;;;;;1.27;0.70;;;;;;;16.85;36.01;99241.97;5017558;28;20053;-59
2022/09/01 10:59:00;;;;;;;5.25;0.65;;;;;;;17.04;35.99;99240.66;5012226;28;20542;-59
2022/09/01 11:01:40;;;;;;;2.90;0.90;;;;;;;17.27;35.71;99244.41;5029097;28;20033;-54
2022/09/01 11:04:08;;;;;;;1.25;0.70;;;;;;;17.29;35.26;99237.75;5031597;28;20060;-53
2022/09/01 11:06:40;;;;;;;1.02;0.60;;;;;;;17.40;35.10;99241.06;5031399;28;20110;-60
2022/09/01 11:09:19;;;;;;;4.90;0.50;;;;;;;17.36;35.04;99241.44;5014270;28;20045;-57
2022/09/01 11:11:53;;;;;;;2.83;0.60;;;;;;;17.55;34.70;99231.09;5019499;28;20021;-58
2022/09/01 11:14:22;;;;;;;1.05;0.55;;;;;;;17.53;34.38;99230.44;5030574;28;20171;-59
2022/09/01 11:17:11;;;;;;;3.85;0.90;;;;;;;17.53;35.14;99238.56;5012053;28;20083;-59
2022/09/01 11:19:45;;;;;;;9.45;1.05;;;;;;;17.39;34.93;99242.09;5010985;28;20038;-57
2022/09/01 11:22:31;;;;;;;1.95;0.60;;;;;;;17.39;35.14;99244.81;5024697;28;20138;-59
2022/09/01 11:25:32;;;;;;;4.18;0.45;;;;;;;17.26;35.30;99240.84;5026808;28;20390;-56
2022/09/01 11:28:37;;;;;;;2.88;0.70;;;;;;;17.04;35.84;99204.69;5011451;28;20038;-60
2022/09/01 11:31:05;;;;;;;1.02;0.52;;;;;;;17.14;34.84;99234.19;5024772;28;20482;-56
2022/09/01 11:33:43;;;;;;;4.90;0.80;;;;;;;17.07;34.86;99237.59;5031062;28;20073;-52
2022/09/01 11:36:46;;;;;;;3.45;0.80;;;;;;;17.43;35.06;99240.72;5031099;28;20088;-57
2022/09/01 11:39:18;;;;;;;0.98;0.60;;;;;;;17.46;34.58;99232.22;5029570;28;20113;-57
2022/09/01 11:41:49;;;;;;;4.20;0.60;;;;;;;17.50;34.56;99230.81;5030456;28;20060;-54
2022/09/01 11:44:26;;;;;;;4.22;0.60;;;;;;;17.68;34.54;99232.34;5030408;28;20045;-57
2022/09/01 11:46:57;;;;;;;2.28;0.68;;;;;;;17.75;34.21;99217.03;5018369;28;20430;-57
2022/09/01 11:49:36;;;;;;;1.75;0.65;;;;;;;17.90;33.49;99214.34;5010906;28;20030;-56
2022/09/01 11:52:04;;;;;;;4.43;0.70;;;;;;;17.99;33.43;99223.22;5010831;28;20113;-53
2022/09/01 11:54:37;;;;;;;4.55;0.80;;;;;;;18.11;33.15;99210.91;5011781;28;20042;-59